OSE120 LIMG-LIMJ
Flight info
| Callsign | OSE120 |
|---|---|
| Flight time | 0h 28m |
| Altitude | 1500 |
| Route | CERIALE COGOLETO |
| Aircraft | R22/L-SGC/C |
Departure
| Time | 2026-04-24 13:36 |
|---|---|
| Airport | Riviera Villanova d'Albenga International Airport (LIMG) |
Arrival
| Time | 2026-04-24 14:05 |
|---|---|
| Airport | Genoa Cristoforo Colombo Airport (LIMJ) |
| Time | Latitude | Longitude | Altitude | Speed | Heading |
|---|---|---|---|---|---|
| 2026-04-24 13:25 | 44.04695 | 8.12324 | 146 ft | 0 kts | 360° |
| 2026-04-24 13:34 | 44.04697 | 8.12316 | 158 ft | 7 kts | 332° |
| 2026-04-24 13:34 | 44.04746 | 8.12153 | 198 ft | 28 kts | 309° |
| 2026-04-24 13:34 | 44.04901 | 8.11951 | 244 ft | 36 kts | 333° |
| 2026-04-24 13:35 | 44.05058 | 8.11945 | 216 ft | 18 kts | 85° |
| 2026-04-24 13:35 | 44.05061 | 8.12188 | 241 ft | 34 kts | 88° |
| 2026-04-24 13:35 | 44.05048 | 8.12582 | 248 ft | 50 kts | 86° |
| 2026-04-24 13:35 | 44.05033 | 8.13092 | 246 ft | 56 kts | 86° |
| 2026-04-24 13:36 | 44.05009 | 8.13606 | 318 ft | 50 kts | 91° |
| 2026-04-24 13:36 | 44.04972 | 8.14079 | 405 ft | 46 kts | 99° |
| 2026-04-24 13:36 | 44.04949 | 8.14467 | 708 ft | 32 kts | 100° |
| 2026-04-24 13:36 | 44.05029 | 8.14817 | 906 ft | 55 kts | 62° |
| 2026-04-24 13:37 | 44.05240 | 8.15350 | 859 ft | 73 kts | 56° |
| 2026-04-24 13:37 | 44.05608 | 8.15842 | 917 ft | 80 kts | 43° |
| 2026-04-24 13:37 | 44.06045 | 8.16440 | 645 ft | 98 kts | 53° |
| 2026-04-24 13:37 | 44.06417 | 8.17213 | 605 ft | 84 kts | 65° |
| 2026-04-24 13:38 | 44.06603 | 8.17906 | 757 ft | 73 kts | 74° |
| 2026-04-24 13:38 | 44.06835 | 8.18527 | 955 ft | 70 kts | 62° |
| 2026-04-24 13:38 | 44.07053 | 8.19154 | 1050 ft | 81 kts | 73° |
| 2026-04-24 13:38 | 44.07260 | 8.19856 | 1079 ft | 79 kts | 61° |
| 2026-04-24 13:39 | 44.07580 | 8.20509 | 1089 ft | 86 kts | 58° |
| 2026-04-24 13:39 | 44.07918 | 8.21231 | 1080 ft | 90 kts | 63° |
| 2026-04-24 13:39 | 44.08194 | 8.21995 | 1088 ft | 89 kts | 68° |
| 2026-04-24 13:39 | 44.08458 | 8.22786 | 1084 ft | 93 kts | 68° |
| 2026-04-24 13:40 | 44.08718 | 8.23572 | 1083 ft | 86 kts | 67° |
| 2026-04-24 13:40 | 44.08973 | 8.24345 | 1092 ft | 90 kts | 68° |
| 2026-04-24 13:40 | 44.09243 | 8.25137 | 1084 ft | 88 kts | 66° |
| 2026-04-24 13:40 | 44.09492 | 8.25886 | 1084 ft | 82 kts | 69° |
| 2026-04-24 13:41 | 44.09756 | 8.26604 | 1092 ft | 86 kts | 64° |
| 2026-04-24 13:41 | 44.10051 | 8.27346 | 1084 ft | 88 kts | 63° |
| 2026-04-24 13:41 | 44.10347 | 8.28086 | 1091 ft | 88 kts | 66° |
| 2026-04-24 13:41 | 44.10654 | 8.28820 | 1081 ft | 86 kts | 64° |
| 2026-04-24 13:42 | 44.10952 | 8.29526 | 1087 ft | 83 kts | 64° |
| 2026-04-24 13:42 | 44.11236 | 8.30213 | 1085 ft | 80 kts | 64° |
| 2026-04-24 13:42 | 44.11510 | 8.30888 | 1090 ft | 82 kts | 63° |
| 2026-04-24 13:42 | 44.11776 | 8.31590 | 1088 ft | 83 kts | 64° |
| 2026-04-24 13:43 | 44.12043 | 8.32303 | 1106 ft | 83 kts | 65° |
| 2026-04-24 13:43 | 44.12322 | 8.33025 | 1098 ft | 86 kts | 67° |
| 2026-04-24 13:43 | 44.12609 | 8.33735 | 1091 ft | 86 kts | 64° |
| 2026-04-24 13:43 | 44.12912 | 8.34454 | 1048 ft | 86 kts | 64° |
| 2026-04-24 13:44 | 44.13194 | 8.35206 | 1067 ft | 90 kts | 66° |
| 2026-04-24 13:44 | 44.13462 | 8.35975 | 1079 ft | 87 kts | 66° |
| 2026-04-24 13:44 | 44.13751 | 8.36764 | 1086 ft | 94 kts | 66° |
| 2026-04-24 13:44 | 44.14054 | 8.37582 | 1089 ft | 95 kts | 66° |
| 2026-04-24 13:45 | 44.14358 | 8.38405 | 1083 ft | 94 kts | 65° |
| 2026-04-24 13:45 | 44.14656 | 8.39206 | 1088 ft | 94 kts | 65° |
| 2026-04-24 13:45 | 44.15043 | 8.39941 | 1089 ft | 94 kts | 50° |
| 2026-04-24 13:45 | 44.15530 | 8.40600 | 1096 ft | 101 kts | 46° |
| 2026-04-24 13:46 | 44.16065 | 8.41266 | 1088 ft | 103 kts | 46° |
| 2026-04-24 13:46 | 44.16598 | 8.41924 | 1091 ft | 102 kts | 47° |
| 2026-04-24 13:46 | 44.17159 | 8.42528 | 1088 ft | 101 kts | 41° |
| 2026-04-24 13:46 | 44.17740 | 8.43102 | 1091 ft | 104 kts | 42° |
| 2026-04-24 13:47 | 44.18325 | 8.43664 | 1087 ft | 100 kts | 39° |
| 2026-04-24 13:47 | 44.18883 | 8.44209 | 1092 ft | 100 kts | 40° |
| 2026-04-24 13:47 | 44.19452 | 8.44786 | 1085 ft | 100 kts | 42° |
| 2026-04-24 13:47 | 44.20011 | 8.45328 | 1084 ft | 95 kts | 39° |
| 2026-04-24 13:48 | 44.20554 | 8.45848 | 1091 ft | 94 kts | 42° |
| 2026-04-24 13:48 | 44.21099 | 8.46330 | 1090 ft | 92 kts | 40° |
| 2026-04-24 13:48 | 44.21649 | 8.46778 | 1088 ft | 90 kts | 34° |
| 2026-04-24 13:48 | 44.22198 | 8.47171 | 1094 ft | 89 kts | 32° |
| 2026-04-24 13:49 | 44.22769 | 8.47588 | 1086 ft | 94 kts | 36° |
| 2026-04-24 13:49 | 44.23340 | 8.47992 | 1086 ft | 91 kts | 32° |
| 2026-04-24 13:49 | 44.23904 | 8.48403 | 1090 ft | 93 kts | 35° |
| 2026-04-24 13:49 | 44.24474 | 8.48802 | 1088 ft | 91 kts | 31° |
| 2026-04-24 13:50 | 44.25043 | 8.49218 | 1084 ft | 94 kts | 34° |
| 2026-04-24 13:50 | 44.25611 | 8.49664 | 1091 ft | 94 kts | 33° |
| 2026-04-24 13:50 | 44.26177 | 8.50128 | 1093 ft | 98 kts | 33° |
| 2026-04-24 13:50 | 44.26763 | 8.50589 | 1090 ft | 95 kts | 32° |
| 2026-04-24 13:51 | 44.27329 | 8.51044 | 1093 ft | 95 kts | 35° |
| 2026-04-24 13:51 | 44.27911 | 8.51497 | 1090 ft | 96 kts | 35° |
| 2026-04-24 13:51 | 44.28494 | 8.51955 | 1092 ft | 97 kts | 36° |
| 2026-04-24 13:51 | 44.29081 | 8.52410 | 1087 ft | 96 kts | 32° |
| 2026-04-24 13:52 | 44.29466 | 8.52727 | 1087 ft | 94 kts | 34° |
| 2026-04-24 13:52 | 44.30215 | 8.53351 | 1109 ft | 99 kts | 41° |
| 2026-04-24 13:52 | 44.30812 | 8.53855 | 1105 ft | 101 kts | 42° |
| 2026-04-24 13:52 | 44.31203 | 8.54213 | 1105 ft | 102 kts | 44° |
| 2026-04-24 13:53 | 44.31765 | 8.54823 | 1102 ft | 103 kts | 47° |
| 2026-04-24 13:53 | 44.32309 | 8.55468 | 1100 ft | 103 kts | 49° |
| 2026-04-24 13:53 | 44.32844 | 8.56118 | 1105 ft | 102 kts | 53° |
| 2026-04-24 13:53 | 44.33390 | 8.56750 | 1104 ft | 100 kts | 46° |
| 2026-04-24 13:54 | 44.33897 | 8.57406 | 1102 ft | 98 kts | 55° |
| 2026-04-24 13:54 | 44.34369 | 8.58105 | 1104 ft | 99 kts | 54° |
| 2026-04-24 13:54 | 44.34834 | 8.58815 | 1104 ft | 99 kts | 57° |
| 2026-04-24 13:54 | 44.35280 | 8.59518 | 1105 ft | 95 kts | 57° |
| 2026-04-24 13:55 | 44.35706 | 8.60214 | 1106 ft | 94 kts | 60° |
| 2026-04-24 13:55 | 44.36106 | 8.60964 | 1110 ft | 97 kts | 65° |
| 2026-04-24 13:55 | 44.36486 | 8.61737 | 1105 ft | 97 kts | 65° |
| 2026-04-24 13:55 | 44.36871 | 8.62497 | 1105 ft | 95 kts | 64° |
| 2026-04-24 13:56 | 44.37270 | 8.63244 | 1111 ft | 97 kts | 66° |
| 2026-04-24 13:56 | 44.37663 | 8.64018 | 1111 ft | 97 kts | 63° |
| 2026-04-24 13:56 | 44.38037 | 8.64821 | 1112 ft | 102 kts | 65° |
| 2026-04-24 13:56 | 44.38403 | 8.65688 | 1109 ft | 103 kts | 71° |
| 2026-04-24 13:57 | 44.38723 | 8.66553 | 1107 ft | 97 kts | 70° |
| 2026-04-24 13:57 | 44.39004 | 8.67427 | 1112 ft | 100 kts | 75° |
| 2026-04-24 13:57 | 44.39293 | 8.68312 | 1109 ft | 99 kts | 75° |
| 2026-04-24 13:57 | 44.39578 | 8.69175 | 1113 ft | 97 kts | 72° |
| 2026-04-24 13:58 | 44.39864 | 8.70026 | 1111 ft | 96 kts | 69° |
| 2026-04-24 13:58 | 44.40151 | 8.70872 | 1118 ft | 98 kts | 74° |
| 2026-04-24 13:58 | 44.40462 | 8.71716 | 1111 ft | 97 kts | 70° |
| 2026-04-24 13:58 | 44.40743 | 8.72566 | 1113 ft | 97 kts | 72° |
| 2026-04-24 13:59 | 44.41017 | 8.73434 | 1114 ft | 98 kts | 72° |
| 2026-04-24 13:59 | 44.41273 | 8.74315 | 1112 ft | 97 kts | 73° |
| 2026-04-24 13:59 | 44.41508 | 8.75192 | 1113 ft | 94 kts | 82° |
| 2026-04-24 13:59 | 44.41567 | 8.76089 | 1116 ft | 92 kts | 98° |
| 2026-04-24 14:00 | 44.41540 | 8.76974 | 1107 ft | 88 kts | 101° |
| 2026-04-24 14:00 | 44.41501 | 8.77785 | 1110 ft | 80 kts | 100° |
| 2026-04-24 14:00 | 44.41454 | 8.78558 | 1123 ft | 84 kts | 99° |
| 2026-04-24 14:00 | 44.41362 | 8.79404 | 1115 ft | 91 kts | 107° |
| 2026-04-24 14:01 | 44.41170 | 8.80255 | 1113 ft | 90 kts | 110° |
| 2026-04-24 14:01 | 44.40966 | 8.81075 | 1113 ft | 88 kts | 111° |
| 2026-04-24 14:01 | 44.40763 | 8.81883 | 1115 ft | 88 kts | 114° |
| 2026-04-24 14:01 | 44.40589 | 8.82704 | 1114 ft | 88 kts | 111° |
| 2026-04-24 14:02 | 44.40417 | 8.83544 | 1115 ft | 92 kts | 109° |
| 2026-04-24 14:02 | 44.40240 | 8.84410 | 1116 ft | 92 kts | 110° |
| 2026-04-24 14:02 | 44.40073 | 8.85266 | 1116 ft | 91 kts | 111° |
| 2026-04-24 14:02 | 44.39894 | 8.86133 | 1117 ft | 93 kts | 109° |
| 2026-04-24 14:03 | 44.39706 | 8.87006 | 1101 ft | 93 kts | 110° |
| 2026-04-24 14:03 | 44.39546 | 8.87862 | 1120 ft | 91 kts | 108° |
| 2026-04-24 14:03 | 44.39390 | 8.88700 | 1115 ft | 87 kts | 111° |
| 2026-04-24 14:03 | 44.39427 | 8.89442 | 1276 ft | 85 kts | 28° |
| 2026-04-24 14:04 | 44.40018 | 8.89220 | 1116 ft | 98 kts | 304° |
| 2026-04-24 14:04 | 44.40336 | 8.88373 | 832 ft | 102 kts | 283° |
| 2026-04-24 14:04 | 44.40576 | 8.87405 | 435 ft | 96 kts | 281° |
| 2026-04-24 14:04 | 44.40729 | 8.86650 | 267 ft | 69 kts | 275° |
| 2026-04-24 14:05 | 44.40834 | 8.86088 | 125 ft | 52 kts | 289° |
| 2026-04-24 14:05 | 44.40912 | 8.85671 | 69 ft | 37 kts | 289° |
| 2026-04-24 14:05 | 44.40977 | 8.85353 | 82 ft | 34 kts | 282° |
| 2026-04-24 14:05 | 44.41042 | 8.85004 | 72 ft | 39 kts | 292° |
| 2026-04-24 14:06 | 44.41185 | 8.84904 | 85 ft | 23 kts | 32° |
| 2026-04-24 14:06 | 44.41362 | 8.84887 | 103 ft | 37 kts | 332° |
| 2026-04-24 14:06 | 44.41569 | 8.84879 | 74 ft | 21 kts | 66° |
| 2026-04-24 14:06 | 44.41656 | 8.85005 | 66 ft | 24 kts | 52° |
| 2026-04-24 14:07 | 44.41706 | 8.85111 | 36 ft | 6 kts | 87° |
| 2026-04-24 14:07 | 44.41706 | 8.85153 | 20 ft | 3 kts | 111° |
| 2026-04-24 14:07 | 44.41705 | 8.85167 | 13 ft | 0 kts | 54° |